sensor_id;sensor_type;location;lat;lon;timestamp;pressure;altitude;pressure_sealevel;temperature;humidity
42111;BME280;27766;52.174;5.456;2023-06-24T00:00:01;102353.06;;;19.51;nan
42111;BME280;27766;52.174;5.456;2023-06-24T00:02:34;102347.81;;;19.48;nan
42111;BME280;27766;52.174;5.456;2023-06-24T00:05:04;102357.44;;;19.49;nan
42111;BME280;27766;52.174;5.456;2023-06-24T00:07:33;102358.31;;;19.48;nan
42111;BME280;27766;52.174;5.456;2023-06-24T00:10:03;102355.66;;;19.43;nan
42111;BME280;27766;52.174;5.456;2023-06-24T00:12:31;102359.13;;;19.36;nan
42111;BME280;27766;52.174;5.456;2023-06-24T00:15:00;102359.97;;;19.29;nan
42111;BME280;27766;52.174;5.456;2023-06-24T00:17:27;102355.53;;;19.23;nan
42111;BME280;27766;52.174;5.456;2023-06-24T00:19:55;102362.56;;;19.23;nan
42111;BME280;27766;52.174;5.456;2023-06-24T00:22:22;102361.69;;;19.25;nan
42111;BME280;27766;52.174;5.456;2023-06-24T00:24:49;102359.06;;;19.27;nan
42111;BME280;27766;52.174;5.456;2023-06-24T00:27:17;102359.97;;;19.29;nan
42111;BME280;27766;52.174;5.456;2023-06-24T00:29:44;102361.66;;;19.21;nan
42111;BME280;27766;52.174;5.456;2023-06-24T00:32:12;102359.84;;;19.12;nan
42111;BME280;27766;52.174;5.456;2023-06-24T00:34:39;102358.03;;;19.05;nan
42111;BME280;27766;52.174;5.456;2023-06-24T00:37:10;102362.41;;;19.06;nan
42111;BME280;27766;52.174;5.456;2023-06-24T00:39:37;102350.16;;;19.05;nan
42111;BME280;27766;52.174;5.456;2023-06-24T00:42:05;102363.31;;;19.06;nan
42111;BME280;27766;52.174;5.456;2023-06-24T00:44:32;102370.28;;;19.04;nan
42111;BME280;27766;52.174;5.456;2023-06-24T00:47:00;102375.47;;;18.93;nan
42111;BME280;27766;52.174;5.456;2023-06-24T00:49:29;102362.28;;;18.87;nan
42111;BME280;27766;52.174;5.456;2023-06-24T00:51:56;102369.25;;;18.85;nan
42111;BME280;27766;52.174;5.456;2023-06-24T00:54:23;102358.63;;;18.70;nan
42111;BME280;27766;52.174;5.456;2023-06-24T00:56:58;102370.84;;;18.67;nan
42111;BME280;27766;52.174;5.456;2023-06-24T00:59:28;102363.81;;;18.63;nan
42111;BME280;27766;52.174;5.456;2023-06-24T01:01:58;102368.13;;;18.54;nan
42111;BME280;27766;52.174;5.456;2023-06-24T01:04:28;102367.22;;;18.53;nan
42111;BME280;27766;52.174;5.456;2023-06-24T01:06:57;102366.31;;;18.48;nan
42111;BME280;27766;52.174;5.456;2023-06-24T01:09:25;102359.25;;;18.41;nan
42111;BME280;27766;52.174;5.456;2023-06-24T01:11:52;102345.25;;;18.39;nan
42111;BME280;27766;52.174;5.456;2023-06-24T01:14:20;102365.41;;;18.43;nan
42111;BME280;27766;52.174;5.456;2023-06-24T01:16:57;102359.25;;;18.42;nan
42111;BME280;27766;52.174;5.456;2023-06-24T01:22:44;102357.50;;;18.38;nan
42111;BME280;27766;52.174;5.456;2023-06-24T01:25:57;102365.41;;;18.43;nan
42111;BME280;27766;52.174;5.456;2023-06-24T01:31:45;102344.38;;;18.40;nan
42111;BME280;27766;52.174;5.456;2023-06-24T01:34:25;102355.75;;;18.40;nan
42111;BME280;27766;52.174;5.456;2023-06-24T01:42:43;102339.09;;;18.37;nan
42111;BME280;27766;52.174;5.456;2023-06-24T01:45:16;102342.53;;;18.29;nan
42111;BME280;27766;52.174;5.456;2023-06-24T01:47:47;102345.03;;;18.18;nan
42111;BME280;27766;52.174;5.456;2023-06-24T01:50:19;102349.38;;;18.12;nan
42111;BME280;27766;52.174;5.456;2023-06-24T01:52:50;102344.88;;;18.01;nan
42111;BME280;27766;52.174;5.456;2023-06-24T01:55:21;102352.59;;;17.92;nan
42111;BME280;27766;52.174;5.456;2023-06-24T01:57:50;102348.13;;;17.83;nan
42111;BME280;27766;52.174;5.456;2023-06-24T02:00:19;102343.63;;;17.71;nan
42111;BME280;27766;52.174;5.456;2023-06-24T02:02:49;102344.53;;;17.74;nan
42111;BME280;27766;52.174;5.456;2023-06-24T02:05:18;102346.19;;;17.67;nan
42111;BME280;27766;52.174;5.456;2023-06-24T02:07:47;102354.03;;;17.65;nan
42111;BME280;27766;52.174;5.456;2023-06-24T02:10:17;102340.03;;;17.62;nan
42111;BME280;27766;52.174;5.456;2023-06-24T02:12:46;102347.03;;;17.64;nan
42111;BME280;27766;52.174;5.456;2023-06-24T02:15:15;102342.66;;;17.62;nan
42111;BME280;27766;52.174;5.456;2023-06-24T02:17:43;102340.00;;;17.60;nan
42111;BME280;27766;52.174;5.456;2023-06-24T02:20:12;102340.91;;;17.64;nan
42111;BME280;27766;52.174;5.456;2023-06-24T02:22:42;102346.06;;;17.59;nan
42111;BME280;27766;52.174;5.456;2023-06-24T02:25:11;102337.34;;;17.57;nan
42111;BME280;27766;52.174;5.456;2023-06-24T02:27:39;102339.91;;;17.51;nan
42111;BME280;27766;52.174;5.456;2023-06-24T02:30:08;102339.91;;;17.54;nan
42111;BME280;27766;52.174;5.456;2023-06-24T02:32:36;102328.59;;;17.55;nan
42111;BME280;27766;52.174;5.456;2023-06-24T02:35:06;102329.44;;;17.54;nan
42111;BME280;27766;52.174;5.456;2023-06-24T02:37:34;102324.13;;;17.48;nan
42111;BME280;27766;52.174;5.456;2023-06-24T02:40:02;102318.00;;;17.44;nan
42111;BME280;27766;52.174;5.456;2023-06-24T02:42:31;102319.63;;;17.37;nan
42111;BME280;27766;52.174;5.456;2023-06-24T02:44:59;102318.75;;;17.35;nan
42111;BME280;27766;52.174;5.456;2023-06-24T02:47:27;102316.94;;;17.31;nan
42111;BME280;27766;52.174;5.456;2023-06-24T02:49:55;102318.63;;;17.28;nan
42111;BME280;27766;52.174;5.456;2023-06-24T02:52:25;102323.00;;;17.27;nan
42111;BME280;27766;52.174;5.456;2023-06-24T02:54:57;102327.31;;;17.25;nan
42111;BME280;27766;52.174;5.456;2023-06-24T02:57:26;102318.53;;;17.20;nan
42111;BME280;27766;52.174;5.456;2023-06-24T02:59:53;102322.03;;;17.20;nan
42111;BME280;27766;52.174;5.456;2023-06-24T03:02:21;102322.81;;;17.13;nan
42111;BME280;27766;52.174;5.456;2023-06-24T03:04:50;102321.91;;;17.13;nan
42111;BME280;27766;52.174;5.456;2023-06-24T03:07:18;102307.81;;;17.01;nan
42111;BME280;27766;52.174;5.456;2023-06-24T03:09:51;102314.75;;;16.99;nan
42111;BME280;27766;52.174;5.456;2023-06-24T03:12:18;102307.72;;;16.97;nan
42111;BME280;27766;52.174;5.456;2023-06-24T03:14:46;102310.38;;;16.98;nan
42111;BME280;27766;52.174;5.456;2023-06-24T03:17:13;102307.59;;;16.89;nan
42111;BME280;27766;52.174;5.456;2023-06-24T03:19:41;102311.00;;;16.85;nan
42111;BME280;27766;52.174;5.456;2023-06-24T03:22:08;102311.84;;;16.84;nan
42111;BME280;27766;52.174;5.456;2023-06-24T03:24:36;102323.22;;;16.86;nan
42111;BME280;27766;52.174;5.456;2023-06-24T03:27:03;102317.94;;;16.83;nan
42111;BME280;27766;52.174;5.456;2023-06-24T03:29:31;102326.75;;;16.88;nan
42111;BME280;27766;52.174;5.456;2023-06-24T03:31:58;102332.00;;;16.88;nan
42111;BME280;27766;52.174;5.456;2023-06-24T03:34:26;102331.13;;;16.89;nan
42111;BME280;27766;52.174;5.456;2023-06-24T03:36:54;102331.16;;;16.90;nan
42111;BME280;27766;52.174;5.456;2023-06-24T03:39:24;102329.38;;;16.89;nan
42111;BME280;27766;52.174;5.456;2023-06-24T03:41:52;102335.47;;;16.90;nan
42111;BME280;27766;52.174;5.456;2023-06-24T03:44:19;102325.84;;;16.86;nan
42111;BME280;27766;52.174;5.456;2023-06-24T03:46:47;102324.06;;;16.82;nan
42111;BME280;27766;52.174;5.456;2023-06-24T03:49:14;102327.59;;;16.87;nan
42111;BME280;27766;52.174;5.456;2023-06-24T03:51:41;102331.13;;;16.89;nan
42111;BME280;27766;52.174;5.456;2023-06-24T03:54:08;102325.88;;;16.87;nan
42111;BME280;27766;52.174;5.456;2023-06-24T03:56:36;102327.63;;;16.90;nan
42111;BME280;27766;52.174;5.456;2023-06-24T03:59:03;102322.41;;;16.88;nan
42111;BME280;27766;52.174;5.456;2023-06-24T04:01:32;102329.31;;;16.86;nan
42111;BME280;27766;52.174;5.456;2023-06-24T04:04:00;102323.16;;;16.83;nan
42111;BME280;27766;52.174;5.456;2023-06-24T04:06:27;102327.59;;;16.85;nan
42111;BME280;27766;52.174;5.456;2023-06-24T04:08:55;102324.06;;;16.82;nan
42111;BME280;27766;52.174;5.456;2023-06-24T04:11:22;102339.00;;;16.90;nan
42111;BME280;27766;52.174;5.456;2023-06-24T04:13:50;102339.09;;;16.95;nan
42111;BME280;27766;52.174;5.456;2023-06-24T04:16:17;102340.00;;;16.97;nan
42111;BME280;27766;52.174;5.456;2023-06-24T04:18:45;102347.03;;;17.01;nan
42111;BME280;27766;52.174;5.456;2023-06-24T04:21:17;102341.88;;;17.06;nan
42111;BME280;27766;52.174;5.456;2023-06-24T04:23:45;102343.66;;;17.08;nan
42111;BME280;27766;52.174;5.456;2023-06-24T04:26:13;102345.50;;;17.16;nan
42111;BME280;27766;52.174;5.456;2023-06-24T04:28:40;102343.81;;;17.19;nan
42111;BME280;27766;52.174;5.456;2023-06-24T04:31:07;102335.16;;;17.23;nan
42111;BME280;27766;52.174;5.456;2023-06-24T04:33:35;102344.78;;;17.26;nan
42111;BME280;27766;52.174;5.456;2023-06-24T04:36:02;102328.97;;;17.18;nan
42111;BME280;27766;52.174;5.456;2023-06-24T04:38:30;102337.78;;;17.25;nan
42111;BME280;27766;52.174;5.456;2023-06-24T04:40:57;102334.31;;;17.26;nan
42111;BME280;27766;52.174;5.456;2023-06-24T04:43:26;102326.41;;;17.23;nan
42111;BME280;27766;52.174;5.456;2023-06-24T04:45:56;102337.06;;;17.35;nan
42111;BME280;27766;52.174;5.456;2023-06-24T04:48:24;102339.78;;;17.45;nan
42111;BME280;27766;52.174;5.456;2023-06-24T04:50:51;102339.94;;;17.55;nan
42111;BME280;27766;52.174;5.456;2023-06-24T04:53:21;102341.75;;;17.63;nan
42111;BME280;27766;52.174;5.456;2023-06-24T04:55:48;102335.78;;;17.73;nan
42111;BME280;27766;52.174;5.456;2023-06-24T04:58:16;102335.91;;;17.82;nan
42111;BME280;27766;52.174;5.456;2023-06-24T05:00:43;102337.72;;;17.90;nan
42111;BME280;27766;52.174;5.456;2023-06-24T05:03:10;102337.88;;;17.99;nan
42111;BME280;27766;52.174;5.456;2023-06-24T05:05:38;102342.28;;;18.04;nan
42111;BME280;27766;52.174;5.456;2023-06-24T05:08:06;102350.22;;;18.11;nan
42111;BME280;27766;52.174;5.456;2023-06-24T05:10:34;102354.66;;;18.18;nan
42111;BME280;27766;52.174;5.456;2023-06-24T05:13:01;102355.50;;;18.15;nan
42111;BME280;27766;52.174;5.456;2023-06-24T05:15:28;102350.28;;;18.15;nan
42111;BME280;27766;52.174;5.456;2023-06-24T05:17:56;102359.00;;;18.16;nan
42111;BME280;27766;52.174;5.456;2023-06-24T05:20:23;102356.38;;;18.16;nan
42111;BME280;27766;52.174;5.456;2023-06-24T05:22:51;102361.63;;;18.16;nan
42111;BME280;27766;52.174;5.456;2023-06-24T05:25:18;102364.25;;;18.17;nan
42111;BME280;27766;52.174;5.456;2023-06-24T05:27:45;102356.44;;;18.22;nan
42111;BME280;27766;52.174;5.456;2023-06-24T05:30:13;102361.72;;;18.25;nan
42111;BME280;27766;52.174;5.456;2023-06-24T05:32:41;102359.22;;;18.36;nan
42111;BME280;27766;52.174;5.456;2023-06-24T05:35:08;102345.28;;;18.45;nan
42111;BME280;27766;52.174;5.456;2023-06-24T05:37:36;102348.00;;;18.54;nan
42111;BME280;27766;52.174;5.456;2023-06-24T05:40:07;102353.34;;;18.62;nan
42111;BME280;27766;52.174;5.456;2023-06-24T05:42:35;102365.63;;;18.72;nan
42111;BME280;27766;52.174;5.456;2023-06-24T05:45:02;102362.22;;;18.81;nan
42111;BME280;27766;52.174;5.456;2023-06-24T05:47:30;102364.03;;;18.91;nan
42111;BME280;27766;52.174;5.456;2023-06-24T05:49:57;102359.72;;;18.93;nan
42111;BME280;27766;52.174;5.456;2023-06-24T05:52:25;102368.56;;;19.09;nan
42111;BME280;27766;52.174;5.456;2023-06-24T05:54:52;102360.78;;;19.23;nan
42111;BME280;27766;52.174;5.456;2023-06-24T05:57:20;102369.59;;;19.32;nan
42111;BME280;27766;52.174;5.456;2023-06-24T05:59:47;102365.22;;;19.37;nan
42111;BME280;27766;52.174;5.456;2023-06-24T06:02:14;102368.81;;;19.51;nan
42111;BME280;27766;52.174;5.456;2023-06-24T06:04:42;102360.09;;;19.58;nan
42111;BME280;27766;52.174;5.456;2023-06-24T06:07:09;102363.66;;;19.68;nan
42111;BME280;27766;52.174;5.456;2023-06-24T06:09:37;102368.06;;;19.83;nan
42111;BME280;27766;52.174;5.456;2023-06-24T06:12:05;102367.28;;;19.92;nan
42111;BME280;27766;52.174;5.456;2023-06-24T06:14:32;102364.66;;;20.06;nan
42111;BME280;27766;52.174;5.456;2023-06-24T06:17:00;102360.31;;;20.16;nan
42111;BME280;27766;52.174;5.456;2023-06-24T06:19:27;102358.56;;;20.24;nan
42111;BME280;27766;52.174;5.456;2023-06-24T06:21:54;102355.97;;;20.32;nan
42111;BME280;27766;52.174;5.456;2023-06-24T06:24:22;102363.84;;;20.44;nan
42111;BME280;27766;52.174;5.456;2023-06-24T06:26:49;102361.22;;;20.50;nan
42111;BME280;27766;52.174;5.456;2023-06-24T06:29:17;102363.88;;;20.58;nan
42111;BME280;27766;52.174;5.456;2023-06-24T06:31:44;102367.38;;;20.69;nan
42111;BME280;27766;52.174;5.456;2023-06-24T06:34:12;102374.44;;;20.84;nan
42111;BME280;27766;52.174;5.456;2023-06-24T06:36:39;102368.28;;;21.01;nan
42111;BME280;27766;52.174;5.456;2023-06-24T06:39:07;102371.72;;;21.31;nan
42111;BME280;27766;52.174;5.456;2023-06-24T06:41:34;102375.16;;;21.55;nan
42111;BME280;27766;52.174;5.456;2023-06-24T06:44:01;102372.53;;;21.61;nan
42111;BME280;27766;52.174;5.456;2023-06-24T06:46:29;102374.22;;;21.77;nan
42111;BME280;27766;52.174;5.456;2023-06-24T06:48:56;102374.13;;;21.97;nan
42111;BME280;27766;52.174;5.456;2023-06-24T06:51:24;102372.28;;;22.12;nan
42111;BME280;27766;52.174;5.456;2023-06-24T06:53:52;102376.56;;;22.28;nan
42111;BME280;27766;52.174;5.456;2023-06-24T06:56:23;102367.69;;;22.43;nan
42111;BME280;27766;52.174;5.456;2023-06-24T06:58:54;102363.25;;;22.50;nan
42111;BME280;27766;52.174;5.456;2023-06-24T07:01:21;102371.28;;;22.33;nan
42111;BME280;27766;52.174;5.456;2023-06-24T07:03:49;102367.72;;;22.34;nan
42111;BME280;27766;52.174;5.456;2023-06-24T07:06:19;102365.09;;;22.39;nan
42111;BME280;27766;52.174;5.456;2023-06-24T07:08:47;102371.13;;;22.56;nan
42111;BME280;27766;52.174;5.456;2023-06-24T07:11:14;102367.66;;;22.51;nan
42111;BME280;27766;52.174;5.456;2023-06-24T07:13:42;102363.28;;;22.49;nan
42111;BME280;27766;52.174;5.456;2023-06-24T07:16:09;102364.06;;;22.60;nan
42111;BME280;27766;52.174;5.456;2023-06-24T07:18:37;102370.97;;;22.76;nan
42111;BME280;27766;52.174;5.456;2023-06-24T07:21:04;102376.13;;;22.87;nan
42111;BME280;27766;52.174;5.456;2023-06-24T07:23:31;102376.00;;;23.01;nan
42111;BME280;27766;52.174;5.456;2023-06-24T07:25:58;102377.69;;;23.07;nan
42111;BME280;27766;52.174;5.456;2023-06-24T07:28:28;102379.28;;;23.28;nan
42111;BME280;27766;52.174;5.456;2023-06-24T07:30:56;102376.06;;;22.93;nan
42111;BME280;27766;52.174;5.456;2023-06-24T07:33:23;102381.09;;;23.23;nan
42111;BME280;27766;52.174;5.456;2023-06-24T07:35:50;102379.19;;;23.34;nan
42111;BME280;27766;52.174;5.456;2023-06-24T07:38:18;102378.09;;;23.55;nan
42111;BME280;27766;52.174;5.456;2023-06-24T07:40:45;102375.19;;;23.76;nan
42111;BME280;27766;52.174;5.456;2023-06-24T07:43:13;102372.34;;;23.94;nan
42111;BME280;27766;52.174;5.456;2023-06-24T07:45:41;102377.50;;;24.02;nan
42111;BME280;27766;52.174;5.456;2023-06-24T07:48:08;102373.78;;;24.17;nan
42111;BME280;27766;52.174;5.456;2023-06-24T07:50:36;102364.78;;;24.27;nan
42111;BME280;27766;52.174;5.456;2023-06-24T07:53:03;102361.63;;;24.05;nan
42111;BME280;27766;52.174;5.456;2023-06-24T07:55:30;102368.31;;;24.28;nan
42111;BME280;27766;52.174;5.456;2023-06-24T07:57:57;102361.06;;;24.39;nan
42111;BME280;27766;52.174;5.456;2023-06-24T08:00:30;102354.78;;;24.48;nan
42111;BME280;27766;52.174;5.456;2023-06-24T08:02:57;102354.69;;;24.53;nan
42111;BME280;27766;52.174;5.456;2023-06-24T08:05:25;102366.81;;;24.66;nan
42111;BME280;27766;52.174;5.456;2023-06-24T08:07:53;102365.75;;;24.79;nan
42111;BME280;27766;52.174;5.456;2023-06-24T08:10:20;102367.22;;;24.96;nan
42111;BME280;27766;52.174;5.456;2023-06-24T08:12:48;102367.81;;;25.10;nan
42111;BME280;27766;52.174;5.456;2023-06-24T08:15:15;102363.88;;;25.32;nan
42111;BME280;27766;52.174;5.456;2023-06-24T08:17:43;102362.00;;;25.38;nan
42111;BME280;27766;52.174;5.456;2023-06-24T08:20:11;102366.19;;;25.50;nan
42111;BME280;27766;52.174;5.456;2023-06-24T08:22:38;102353.81;;;25.49;nan
42111;BME280;27766;52.174;5.456;2023-06-24T08:25:06;102348.44;;;25.55;nan
42111;BME280;27766;52.174;5.456;2023-06-24T08:27:33;102362.41;;;25.62;nan
42111;BME280;27766;52.174;5.456;2023-06-24T08:30:01;102358.72;;;25.69;nan
42111;BME280;27766;52.174;5.456;2023-06-24T08:32:28;102364.94;;;25.67;nan
42111;BME280;27766;52.174;5.456;2023-06-24T08:34:55;102365.91;;;25.64;nan
42111;BME280;27766;52.174;5.456;2023-06-24T08:37:22;102357.84;;;25.69;nan
42111;BME280;27766;52.174;5.456;2023-06-24T08:39:50;102359.69;;;25.65;nan
42111;BME280;27766;52.174;5.456;2023-06-24T08:42:17;102356.38;;;25.54;nan
42111;BME280;27766;52.174;5.456;2023-06-24T08:44:44;102353.81;;;25.51;nan
42111;BME280;27766;52.174;5.456;2023-06-24T08:47:12;102358.81;;;25.65;nan
42111;BME280;27766;52.174;5.456;2023-06-24T08:49:48;102361.69;;;25.54;nan
42111;BME280;27766;52.174;5.456;2023-06-24T08:52:21;102355.47;;;25.55;nan
42111;BME280;27766;52.174;5.456;2023-06-24T08:54:55;102351.22;;;25.90;nan
42111;BME280;27766;52.174;5.456;2023-06-24T08:57:23;102348.59;;;25.87;nan
42111;BME280;27766;52.174;5.456;2023-06-24T08:59:50;102342.50;;;25.83;nan
42111;BME280;27766;52.174;5.456;2023-06-24T09:02:18;102347.75;;;25.85;nan
42111;BME280;27766;52.174;5.456;2023-06-24T09:04:45;102347.34;;;26.03;nan
42111;BME280;27766;52.174;5.456;2023-06-24T09:07:13;102343.59;;;26.14;nan
42111;BME280;27766;52.174;5.456;2023-06-24T09:09:44;102348.88;;;26.15;nan
42111;BME280;27766;52.174;5.456;2023-06-24T09:12:13;102346.06;;;26.21;nan
42111;BME280;27766;52.174;5.456;2023-06-24T09:14:48;102341.47;;;26.30;nan
42111;BME280;27766;52.174;5.456;2023-06-24T09:17:16;102335.94;;;26.37;nan
42111;BME280;27766;52.174;5.456;2023-06-24T09:19:44;102341.13;;;26.42;nan
42111;BME280;27766;52.174;5.456;2023-06-24T09:22:11;102331.38;;;26.44;nan
42111;BME280;27766;52.174;5.456;2023-06-24T09:24:45;102342.38;;;26.63;nan
42111;BME280;27766;52.174;5.456;2023-06-24T09:27:17;102336.84;;;26.71;nan
42111;BME280;27766;52.174;5.456;2023-06-24T09:29:51;102339.41;;;26.77;nan
42111;BME280;27766;52.174;5.456;2023-06-24T09:32:18;102334.84;;;26.82;nan
42111;BME280;27766;52.174;5.456;2023-06-24T09:34:46;102334.53;;;26.93;nan
42111;BME280;27766;52.174;5.456;2023-06-24T09:37:21;102338.56;;;27.08;nan
42111;BME280;27766;52.174;5.456;2023-06-24T09:39:49;102328.84;;;27.07;nan
42111;BME280;27766;52.174;5.456;2023-06-24T09:42:20;102331.19;;;27.18;nan
42111;BME280;27766;52.174;5.456;2023-06-24T09:44:55;102329.00;;;27.32;nan
42111;BME280;27766;52.174;5.456;2023-06-24T09:47:25;102330.66;;;27.37;nan
42111;BME280;27766;52.174;5.456;2023-06-24T09:49:55;102322.09;;;26.95;nan
42111;BME280;27766;52.174;5.456;2023-06-24T09:52:23;102333.28;;;27.07;nan
42111;BME280;27766;52.174;5.456;2023-06-24T09:54:51;102324.69;;;26.97;nan
42111;BME280;27766;52.174;5.456;2023-06-24T09:57:31;102327.56;;;27.21;nan
42111;BME280;27766;52.174;5.456;2023-06-24T09:59:59;102319.94;;;27.40;nan
42111;BME280;27766;52.174;5.456;2023-06-24T10:02:28;102318.44;;;27.29;nan
42111;BME280;27766;52.174;5.456;2023-06-24T10:04:56;102321.03;;;27.32;nan
42111;BME280;27766;52.174;5.456;2023-06-24T10:07:26;102319.31;;;27.00;nan
42111;BME280;27766;52.174;5.456;2023-06-24T10:09:55;102322.94;;;26.63;nan
42111;BME280;27766;52.174;5.456;2023-06-24T10:12:22;102313.91;;;26.70;nan
42111;BME280;27766;52.174;5.456;2023-06-24T10:14:53;102320.25;;;26.97;nan
42111;BME280;27766;52.174;5.456;2023-06-24T10:17:21;102314.94;;;27.29;nan
42111;BME280;27766;52.174;5.456;2023-06-24T10:19:48;102312.69;;;27.46;nan
42111;BME280;27766;52.174;5.456;2023-06-24T10:22:21;102318.31;;;27.34;nan
42111;BME280;27766;52.174;5.456;2023-06-24T10:24:51;102315.81;;;26.98;nan
42111;BME280;27766;52.174;5.456;2023-06-24T10:27:21;102310.88;;;26.84;nan
42111;BME280;27766;52.174;5.456;2023-06-24T10:29:52;102308.03;;;26.92;nan
42111;BME280;27766;52.174;5.456;2023-06-24T10:32:22;102314.00;;;27.00;nan
42111;BME280;27766;52.174;5.456;2023-06-24T10:34:56;102308.72;;;27.28;nan
42111;BME280;27766;52.174;5.456;2023-06-24T10:37:30;102303.13;;;27.69;nan
42111;BME280;27766;52.174;5.456;2023-06-24T10:39:58;102304.13;;;27.93;nan
42111;BME280;27766;52.174;5.456;2023-06-24T10:44:56;102298.09;;;27.88;nan
42111;BME280;27766;52.174;5.456;2023-06-24T10:47:24;102292.50;;;27.69;nan
42111;BME280;27766;52.174;5.456;2023-06-24T10:49:52;102286.13;;;28.02;nan
42111;BME280;27766;52.174;5.456;2023-06-24T10:52:21;102286.22;;;28.27;nan
42111;BME280;27766;52.174;5.456;2023-06-24T10:54:52;102286.88;;;28.59;nan
42111;BME280;27766;52.174;5.456;2023-06-24T10:57:26;102289.56;;;28.84;nan
42111;BME280;27766;52.174;5.456;2023-06-24T10:59:55;102286.63;;;29.16;nan
42111;BME280;27766;52.174;5.456;2023-06-24T11:02:25;102280.31;;;28.95;nan
42111;BME280;27766;52.174;5.456;2023-06-24T11:05:00;102280.50;;;29.14;nan
42111;BME280;27766;52.174;5.456;2023-06-24T11:07:29;102285.78;;;29.39;nan
42111;BME280;27766;52.174;5.456;2023-06-24T11:10:10;102286.34;;;29.47;nan
42111;BME280;27766;52.174;5.456;2023-06-24T11:12:40;102285.59;;;29.20;nan
42111;BME280;27766;52.174;5.456;2023-06-24T11:15:10;102278.56;;;28.68;nan
42111;BME280;27766;52.174;5.456;2023-06-24T11:17:38;102283.00;;;27.89;nan
42111;BME280;27766;52.174;5.456;2023-06-24T11:20:11;102274.25;;;27.57;nan
42111;BME280;27766;52.174;5.456;2023-06-24T11:22:40;102283.03;;;27.29;nan
42111;BME280;27766;52.174;5.456;2023-06-24T11:25:18;102278.00;;;27.20;nan
42111;BME280;27766;52.174;5.456;2023-06-24T11:27:46;102285.28;;;27.13;nan
42111;BME280;27766;52.174;5.456;2023-06-24T11:30:13;102267.41;;;26.88;nan
42111;BME280;27766;52.174;5.456;2023-06-24T11:32:43;102276.59;;;26.76;nan
42111;BME280;27766;52.174;5.456;2023-06-24T11:35:12;102272.50;;;26.63;nan
42111;BME280;27766;52.174;5.456;2023-06-24T11:37:46;102279.47;;;26.32;nan
42111;BME280;27766;52.174;5.456;2023-06-24T11:40:17;102268.81;;;26.34;nan
42111;BME280;27766;52.174;5.456;2023-06-24T11:42:47;102270.75;;;26.27;nan
42111;BME280;27766;52.174;5.456;2023-06-24T11:45:20;102255.94;;;26.18;nan
42111;BME280;27766;52.174;5.456;2023-06-24T11:47:48;102266.19;;;26.32;nan
42111;BME280;27766;52.174;5.456;2023-06-24T11:50:25;102266.31;;;26.28;nan
42111;BME280;27766;52.174;5.456;2023-06-24T11:52:53;102267.16;;;26.30;nan
42111;BME280;27766;52.174;5.456;2023-06-24T11:55:24;102266.09;;;26.37;nan
42111;BME280;27766;52.174;5.456;2023-06-24T11:58:04;102259.78;;;26.41;nan
42111;BME280;27766;52.174;5.456;2023-06-24T12:00:35;102251.81;;;26.41;nan
42111;BME280;27766;52.174;5.456;2023-06-24T12:03:05;102262.47;;;26.39;nan
42111;BME280;27766;52.174;5.456;2023-06-24T12:05:36;102265.72;;;26.51;nan
42111;BME280;27766;52.174;5.456;2023-06-24T12:08:05;102261.66;;;26.70;nan
42111;BME280;27766;52.174;5.456;2023-06-24T12:10:34;102253.28;;;26.86;nan
42111;BME280;27766;52.174;5.456;2023-06-24T12:13:03;102250.66;;;27.16;nan
42111;BME280;27766;52.174;5.456;2023-06-24T12:15:33;102263.06;;;26.85;nan
42111;BME280;27766;52.174;5.456;2023-06-24T12:18:00;102254.13;;;26.86;nan
42111;BME280;27766;52.174;5.456;2023-06-24T12:20:29;102251.81;;;26.74;nan
42111;BME280;27766;52.174;5.456;2023-06-24T12:23:01;102252.69;;;26.76;nan
42111;BME280;27766;52.174;5.456;2023-06-24T12:25:28;102249.22;;;26.71;nan
42111;BME280;27766;52.174;5.456;2023-06-24T12:27:55;102245.00;;;26.97;nan
42111;BME280;27766;52.174;5.456;2023-06-24T12:30:23;102249.66;;;26.89;nan
42111;BME280;27766;52.174;5.456;2023-06-24T12:32:51;102246.19;;;27.16;nan
42111;BME280;27766;52.174;5.456;2023-06-24T12:35:19;102237.22;;;28.07;nan
42111;BME280;27766;52.174;5.456;2023-06-24T12:37:46;102239.81;;;29.09;nan
42111;BME280;27766;52.174;5.456;2023-06-24T12:40:14;102233.63;;;29.76;nan
42111;BME280;27766;52.174;5.456;2023-06-24T12:42:42;102228.75;;;30.29;nan
42111;BME280;27766;52.174;5.456;2023-06-24T12:45:09;102234.63;;;30.37;nan
42111;BME280;27766;52.174;5.456;2023-06-24T12:47:37;102238.53;;;29.43;nan
42111;BME280;27766;52.174;5.456;2023-06-24T12:50:04;102232.81;;;29.06;nan
42111;BME280;27766;52.174;5.456;2023-06-24T12:52:36;102232.69;;;28.85;nan
42111;BME280;27766;52.174;5.456;2023-06-24T12:55:05;102225.09;;;28.74;nan
42111;BME280;27766;52.174;5.456;2023-06-24T12:57:34;102226.09;;;29.19;nan
42111;BME280;27766;52.174;5.456;2023-06-24T13:00:04;102213.69;;;29.85;nan
42111;BME280;27766;52.174;5.456;2023-06-24T13:02:35;102227.19;;;30.25;nan
42111;BME280;27766;52.174;5.456;2023-06-24T13:05:03;102219.78;;;30.52;nan
42111;BME280;27766;52.174;5.456;2023-06-24T13:07:31;102220.03;;;30.46;nan
42111;BME280;27766;52.174;5.456;2023-06-24T13:09:59;102219.22;;;30.23;nan
42111;BME280;27766;52.174;5.456;2023-06-24T13:12:28;102212.03;;;30.46;nan
42111;BME280;27766;52.174;5.456;2023-06-24T13:14:55;102215.25;;;31.13;nan
42111;BME280;27766;52.174;5.456;2023-06-24T13:17:22;102221.53;;;32.03;nan
42111;BME280;27766;52.174;5.456;2023-06-24T13:19:50;102213.78;;;32.33;nan
42111;BME280;27766;52.174;5.456;2023-06-24T13:22:18;102213.81;;;32.49;nan
42111;BME280;27766;52.174;5.456;2023-06-24T13:24:48;102219.25;;;32.48;nan
42111;BME280;27766;52.174;5.456;2023-06-24T13:27:16;102217.19;;;32.69;nan
42111;BME280;27766;52.174;5.456;2023-06-24T13:29:43;102216.56;;;32.48;nan
42111;BME280;27766;52.174;5.456;2023-06-24T13:32:11;102218.16;;;31.82;nan